Amy C. Mc Allister — WCZ9520 — position and weather

sailwx.info

Track history (hours):
 
Tides and Currents Weather Stations Pressure Air Temp Water Temp Dewpoint Dewpoint Depression Visibility Wind Speed Wind Dir Waves Ship Positions

Amy C. Mc Allister

Owner: MC ALLISTER TOWING & TRANSPORTATION INC, NEW YORK, NY. More information available from US FCC via Universal Licensing System and Coast Guard Vessel Documentation Center.

Last reported at 2015-Mar-19 17:31 UTC. Time now 2015-Apr-18 04:58 UTC.
Position N 40°38' W 074°10'.
Warning: this ship's position is 29 days out of date.

Length 27 m; draft 4.9 m.

Type: Towing. MMSI: 366995040.

Date/timePositionNaut miles runAvg speedWind from/ knotsBaromVisibWave heightAir tempDewpointWater temp
2015-Mar-19 17:31N 40°38' W 074°10'0 0.0
2015-Mar-19 16:18N 40°38' W 074°10'0 0.0
2015-Mar-19 15:22N 40°38' W 074°10'0 0.0
2015-Mar-19 14:31N 40°38' W 074°10'0 0.0
2015-Mar-19 11:09N 40°38' W 074°10'0 0.0
2015-Mar-19 08:29N 40°38' W 074°10'0 0.0
2015-Mar-19 02:28N 40°38' W 074°10'0 0.0
2015-Mar-18 22:25N 40°38' W 074°10'0 0.0
2015-Mar-18 19:25N 40°38' W 074°10'0 0.0
2015-Mar-18 16:24N 40°38' W 074°10'0 0.0
2015-Mar-18 13:24N 40°38' W 074°10'0 0.0
2015-Mar-18 11:32N 40°38' W 074°10'0 0.0
2015-Mar-18 06:11N 40°38' W 074°10'0 0.0
2015-Mar-18 04:18N 40°38' W 074°10'0 0.0
2015-Mar-18 03:07N 40°38' W 074°10'0 0.0
2015-Mar-17 22:31N 40°38' W 074°10'0 0.0
2015-Mar-17 12:31N 40°38' W 074°10'0 0.0
2015-Mar-17 11:28N 40°38' W 074°10'0 0.0
2015-Mar-16 23:27N 40°38' W 074°10'0 0.0
2015-Mar-16 22:33N 40°38' W 074°10'0 0.0
2015-Mar-16 20:08N 40°38' W 074°10'0 0.0
2015-Mar-16 19:29N 40°38' W 074°10'0 0.0
2015-Mar-16 17:28N 40°38' W 074°10'0 0.0
2015-Mar-16 12:16N 40°38' W 074°10'0 0.0
2015-Mar-16 11:33N 40°38' W 074°10'0 0.0
2015-Mar-16 10:22N 40°38' W 074°10'0 0.0
2015-Mar-16 09:29N 40°38' W 074°10'0 0.0
2015-Mar-16 01:24N 40°38' W 074°10'0 0.0
2015-Mar-14 19:33N 40°38' W 074°10'0 0.0
2015-Mar-14 16:28N 40°38' W 074°10'0 0.0
2015-Mar-14 14:09N 40°38' W 074°10'0 0.0
2015-Mar-14 04:06N 40°38' W 074°10'0 0.0
2015-Mar-14 03:32N 40°38' W 074°10'0 0.0
2015-Mar-14 02:23N 40°38' W 074°10'0 0.0
2015-Mar-13 20:08N 40°38' W 074°10'0 0.0
2015-Mar-13 17:19N 40°38' W 074°10'0 0.0
2015-Mar-13 08:27N 40°38' W 074°10'0 0.0
2015-Mar-13 03:26N 40°39' W 074°10'6 6.6
2015-Mar-13 02:33N 40°39' W 074°02'0 0.0
2015-Mar-13 01:33N 40°39' W 074°02'3 3.0
2015-Mar-13 00:33N 40°42' W 074°02'4 4.2
2015-Mar-12 23:33N 40°45' W 073°58'46 7.3
2015-Mar-12 17:20N 41°03' W 073°02'7 8.9
2015-Mar-12 16:33N 41°04' W 072°53'9 8.7
2015-Mar-12 15:33N 41°06' W 072°42'8 8.4
2015-Mar-12 14:33N 41°08' W 072°31'7 7.4
2015-Mar-12 13:33N 41°10' W 072°21'6 6.3
2015-Mar-12 12:33N 41°12' W 072°13'6 6.2
2015-Mar-12 11:33N 41°14' W 072°06'6 6.1
2015-Mar-12 10:33N 41°15' W 071°57'7 7.3
2015-Mar-12 09:33N 41°16' W 071°48'8 7.8
2015-Mar-12 08:33N 41°18' W 071°38'8 8.1
2015-Mar-12 07:33N 41°18' W 071°27'8 7.9
2015-Mar-12 06:33N 41°26' W 071°24'8 8.4
2015-Mar-12 05:33N 41°33' W 071°19'8 8.0
2015-Mar-12 04:33N 41°41' W 071°19'6 6.4
2015-Mar-12 03:33N 41°47' W 071°23'0 0.3
2015-Mar-12 02:33N 41°47' W 071°22'0 0.0
2015-Mar-12 01:33N 41°47' W 071°22'0 0.0
2015-Mar-12 00:33N 41°47' W 071°22'0 0.0
2015-Mar-11 23:33N 41°47' W 071°22'0 0.0
2015-Mar-11 22:33N 41°47' W 071°22'0 0.0
2015-Mar-11 21:20N 41°47' W 071°22'0 0.0
2015-Mar-11 20:33N 41°47' W 071°22'0 0.0
2015-Mar-11 19:30N 41°47' W 071°22'0 0.0
2015-Mar-11 18:33N 41°47' W 071°22'0 0.0
2015-Mar-11 17:33N 41°47' W 071°22'0 0.0
2015-Mar-11 16:33N 41°47' W 071°22'0 0.0
2015-Mar-11 15:33N 41°47' W 071°22'0 0.0
2015-Mar-11 14:33N 41°47' W 071°22'2 2.1
2015-Mar-11 13:33N 41°45' W 071°22'8 8.3
2015-Mar-11 12:33N 41°37' W 071°18'7 6.6
2015-Mar-11 11:33N 41°31' W 071°21'0 0.0
2015-Mar-11 08:25N 41°31' W 071°21'0 0.2
2015-Mar-11 07:33N 41°31' W 071°21'39 4.9
2015-Mar-10 23:31N 41°14' W 072°08'9 9.2
2015-Mar-10 22:32N 41°11' W 072°20'9 8.8
2015-Mar-10 21:33N 41°09' W 072°31'8 8.1
2015-Mar-10 20:33N 41°07' W 072°41'14 7.0
2015-Mar-10 18:33N 41°04' W 072°59'7 6.5
2015-Mar-10 17:31N 41°02' W 073°08'6 6.5
2015-Mar-10 16:33N 41°01' W 073°16'5 4.8
2015-Mar-10 15:33N 41°00' W 073°23'7 7.5
2015-Mar-10 14:33N 40°57' W 073°32'8 7.6
2015-Mar-10 13:33N 40°54' W 073°41'8 7.9
2015-Mar-10 12:33N 40°48' W 073°48'7 6.8
2015-Mar-10 11:33N 40°46' W 073°57'5 4.5
2015-Mar-10 10:33N 40°42' W 073°59'4 3.5
2015-Mar-10 09:33N 40°40' W 074°02'0 0.0
2015-Mar-10 08:33N 40°40' W 074°02'0 0.0
2015-Mar-10 07:33N 40°40' W 074°02'0 0.0
2015-Mar-10 06:33N 40°40' W 074°02'0 0.1
2015-Mar-10 05:33N 40°40' W 074°02'1 1.2
2015-Mar-10 04:33N 40°39' W 074°03'2 2.4
2015-Mar-10 03:33N 40°39' W 074°07'1 0.7
2015-Mar-10 02:33N 40°39' W 074°06'0 0.0
2015-Mar-10 01:33N 40°39' W 074°06'0 0.0
2015-Mar-10 00:33N 40°39' W 074°06'2 1.9
2015-Mar-09 23:33N 40°39' W 074°08'4 3.6
2015-Mar-09 22:21N 40°35' W 074°12'5 2.6
2015-Mar-09 20:33N 40°39' W 074°08'2 1.7
2015-Mar-09 19:33N 40°39' W 074°06'  
Track history (hours):
 
Tides and Currents Weather Stations Pressure Air Temp Water Temp Dewpoint Dewpoint Depression Visibility Wind Speed Wind Dir Waves Ship Positions

Amy C. Mc Allister

Owner: MC ALLISTER TOWING & TRANSPORTATION INC, NEW YORK, NY. More information available from US FCC via Universal Licensing System and Coast Guard Vessel Documentation Center.

Last reported at 2015-Mar-19 17:31 UTC. Time now 2015-Apr-18 04:58 UTC.
Position N 40°38' W 074°10'.
Warning: this ship's position is 29 days out of date.

Length 27 m; draft 4.9 m.

Type: Towing. MMSI: 366995040.

Date/timePositionNaut miles runAvg speedWind from/ knotsBaromVisibWave heightAir tempDewpointWater temp
2015-Mar-19 17:31N 40°38' W 074°10'0 0.0
2015-Mar-19 16:18N 40°38' W 074°10'0 0.0
2015-Mar-19 15:22N 40°38' W 074°10'0 0.0
2015-Mar-19 14:31N 40°38' W 074°10'0 0.0
2015-Mar-19 11:09N 40°38' W 074°10'0 0.0
2015-Mar-19 08:29N 40°38' W 074°10'0 0.0
2015-Mar-19 02:28N 40°38' W 074°10'0 0.0
2015-Mar-18 22:25N 40°38' W 074°10'0 0.0
2015-Mar-18 19:25N 40°38' W 074°10'0 0.0
2015-Mar-18 16:24N 40°38' W 074°10'0 0.0
2015-Mar-18 13:24N 40°38' W 074°10'0 0.0
2015-Mar-18 11:32N 40°38' W 074°10'0 0.0
2015-Mar-18 06:11N 40°38' W 074°10'0 0.0
2015-Mar-18 04:18N 40°38' W 074°10'0 0.0
2015-Mar-18 03:07N 40°38' W 074°10'0 0.0
2015-Mar-17 22:31N 40°38' W 074°10'0 0.0
2015-Mar-17 12:31N 40°38' W 074°10'0 0.0
2015-Mar-17 11:28N 40°38' W 074°10'0 0.0
2015-Mar-16 23:27N 40°38' W 074°10'0 0.0
2015-Mar-16 22:33N 40°38' W 074°10'0 0.0
2015-Mar-16 20:08N 40°38' W 074°10'0 0.0
2015-Mar-16 19:29N 40°38' W 074°10'0 0.0
2015-Mar-16 17:28N 40°38' W 074°10'0 0.0
2015-Mar-16 12:16N 40°38' W 074°10'0 0.0
2015-Mar-16 11:33N 40°38' W 074°10'0 0.0
2015-Mar-16 10:22N 40°38' W 074°10'0 0.0
2015-Mar-16 09:29N 40°38' W 074°10'0 0.0
2015-Mar-16 01:24N 40°38' W 074°10'0 0.0
2015-Mar-14 19:33N 40°38' W 074°10'0 0.0
2015-Mar-14 16:28N 40°38' W 074°10'0 0.0
2015-Mar-14 14:09N 40°38' W 074°10'0 0.0
2015-Mar-14 04:06N 40°38' W 074°10'0 0.0
2015-Mar-14 03:32N 40°38' W 074°10'0 0.0
2015-Mar-14 02:23N 40°38' W 074°10'0 0.0
2015-Mar-13 20:08N 40°38' W 074°10'0 0.0
2015-Mar-13 17:19N 40°38' W 074°10'0 0.0
2015-Mar-13 08:27N 40°38' W 074°10'0 0.0
2015-Mar-13 03:26N 40°39' W 074°10'6 6.6
2015-Mar-13 02:33N 40°39' W 074°02'0 0.0
2015-Mar-13 01:33N 40°39' W 074°02'3 3.0
2015-Mar-13 00:33N 40°42' W 074°02'4 4.2
2015-Mar-12 23:33N 40°45' W 073°58'46 7.3
2015-Mar-12 17:20N 41°03' W 073°02'7 8.9
2015-Mar-12 16:33N 41°04' W 072°53'9 8.7
2015-Mar-12 15:33N 41°06' W 072°42'8 8.4
2015-Mar-12 14:33N 41°08' W 072°31'7 7.4
2015-Mar-12 13:33N 41°10' W 072°21'6 6.3
2015-Mar-12 12:33N 41°12' W 072°13'6 6.2
2015-Mar-12 11:33N 41°14' W 072°06'6 6.1
2015-Mar-12 10:33N 41°15' W 071°57'7 7.3
2015-Mar-12 09:33N 41°16' W 071°48'8 7.8
2015-Mar-12 08:33N 41°18' W 071°38'8 8.1
2015-Mar-12 07:33N 41°18' W 071°27'8 7.9
2015-Mar-12 06:33N 41°26' W 071°24'8 8.4
2015-Mar-12 05:33N 41°33' W 071°19'8 8.0
2015-Mar-12 04:33N 41°41' W 071°19'6 6.4
2015-Mar-12 03:33N 41°47' W 071°23'0 0.3
2015-Mar-12 02:33N 41°47' W 071°22'0 0.0
2015-Mar-12 01:33N 41°47' W 071°22'0 0.0
2015-Mar-12 00:33N 41°47' W 071°22'0 0.0
2015-Mar-11 23:33N 41°47' W 071°22'0 0.0
2015-Mar-11 22:33N 41°47' W 071°22'0 0.0
2015-Mar-11 21:20N 41°47' W 071°22'0 0.0
2015-Mar-11 20:33N 41°47' W 071°22'0 0.0
2015-Mar-11 19:30N 41°47' W 071°22'0 0.0
2015-Mar-11 18:33N 41°47' W 071°22'0 0.0
2015-Mar-11 17:33N 41°47' W 071°22'0 0.0
2015-Mar-11 16:33N 41°47' W 071°22'0 0.0
2015-Mar-11 15:33N 41°47' W 071°22'0 0.0
2015-Mar-11 14:33N 41°47' W 071°22'2 2.1
2015-Mar-11 13:33N 41°45' W 071°22'8 8.3
2015-Mar-11 12:33N 41°37' W 071°18'7 6.6
2015-Mar-11 11:33N 41°31' W 071°21'0 0.0
2015-Mar-11 08:25N 41°31' W 071°21'0 0.2
2015-Mar-11 07:33N 41°31' W 071°21'39 4.9
2015-Mar-10 23:31N 41°14' W 072°08'9 9.2
2015-Mar-10 22:32N 41°11' W 072°20'9 8.8
2015-Mar-10 21:33N 41°09' W 072°31'8 8.1
2015-Mar-10 20:33N 41°07' W 072°41'14 7.0
2015-Mar-10 18:33N 41°04' W 072°59'7 6.5
2015-Mar-10 17:31N 41°02' W 073°08'6 6.5
2015-Mar-10 16:33N 41°01' W 073°16'5 4.8
2015-Mar-10 15:33N 41°00' W 073°23'7 7.5
2015-Mar-10 14:33N 40°57' W 073°32'8 7.6
2015-Mar-10 13:33N 40°54' W 073°41'8 7.9
2015-Mar-10 12:33N 40°48' W 073°48'7 6.8
2015-Mar-10 11:33N 40°46' W 073°57'5 4.5
2015-Mar-10 10:33N 40°42' W 073°59'4 3.5
2015-Mar-10 09:33N 40°40' W 074°02'0 0.0
2015-Mar-10 08:33N 40°40' W 074°02'0 0.0
2015-Mar-10 07:33N 40°40' W 074°02'0 0.0
2015-Mar-10 06:33N 40°40' W 074°02'0 0.1
2015-Mar-10 05:33N 40°40' W 074°02'1 1.2
2015-Mar-10 04:33N 40°39' W 074°03'2 2.4
2015-Mar-10 03:33N 40°39' W 074°07'1 0.7
2015-Mar-10 02:33N 40°39' W 074°06'0 0.0
2015-Mar-10 01:33N 40°39' W 074°06'0 0.0
2015-Mar-10 00:33N 40°39' W 074°06'2 1.9
2015-Mar-09 23:33N 40°39' W 074°08'4 3.6
2015-Mar-09 22:21N 40°35' W 074°12'5 2.6
2015-Mar-09 20:33N 40°39' W 074°08'2 1.7
2015-Mar-09 19:33N 40°39' W 074°06'  

Dump ship's entire track history